Terminal Aerodrome Forecast
Issued by NWS

Home | Current Version | Previous Version | Text Only | Print | Product List | Glossary On
Versions: 1 2 3 4 5 6 7 8 9 10 11 12 13 14 15 16 17 18 19
000
FTUS41 KBGM 291700
TAFRME
TAF
KRME 291733Z 2918/3018 12012KT P6SM BKN100
     FM292000 12012KT P6SM OVC080 WS020/18045KT
     FM300100 12010KT 2SM -SN OVC020 WS020/18045KT
     FM300300 12010KT 1SM -SN OVC008
     FM301200 30014G25KT 3SM -SHSN OVC015=

USA.gov is the U.S. government's official web portal to all federal, state and local government web resources and services.